Time;durP1;ratioP1;P1;durP2;ratioP2;P2;SDS_P1;SDS_P2;PMS_P1;PMS_P2;Temp;Humidity;BMP_temperature;BMP_pressure;BME280_temperature;BME280_humidity;BME280_pressure;Samples;Min_cycle;Max_cycle;Signal;HPM_P1;HPM_P2
2022/03/18 00:03:08;;;;;;;62.00;30.03;;;;;9.50;97726.00;;;;8361509;28;20287;-71
2022/03/18 00:07:10;;;;;;;62.27;30.20;;;;;9.50;97726.00;;;;8360837;28;20216;-71
2022/03/18 00:11:15;;;;;;;53.50;27.63;;;;;9.50;97727.00;;;;8361721;28;20224;-71
2022/03/18 00:15:19;;;;;;;64.30;31.40;;;;;9.40;97735.00;;;;8361485;28;20593;-71
2022/03/18 00:19:23;;;;;;;60.77;30.73;;;;;9.40;97727.00;;;;8360179;28;20224;-71
2022/03/18 00:23:59;;;;;;;63.97;30.67;;;;;9.40;97734.00;;;;8361563;28;20232;-70
2022/03/18 00:28:04;;;;;;;66.03;29.97;;;;;9.40;97721.00;;;;8360575;28;20220;-70
2022/03/18 00:32:07;;;;;;;66.70;32.53;;;;;9.40;97717.00;;;;8360465;28;20213;-71
2022/03/18 00:36:10;;;;;;;65.60;32.30;;;;;9.40;97715.00;;;;8361109;28;20220;-70
2022/03/18 00:40:13;;;;;;;63.35;31.23;;;;;9.40;97729.00;;;;8360526;28;20278;-71
2022/03/18 00:44:18;;;;;;;60.03;31.90;;;;;9.40;97715.00;;;;8359489;28;20212;-71
2022/03/18 00:53:14;;;;;;;66.67;32.10;;;;;9.40;97710.00;;;;8359975;28;20242;-71
2022/03/18 00:57:51;;;;;;;68.88;31.50;;;;;9.30;97717.00;;;;8360549;28;20220;-71
2022/03/18 01:01:56;;;;;;;68.90;32.93;;;;;9.30;97714.00;;;;8363912;28;20217;-71
2022/03/18 01:05:59;;;;;;;65.50;32.87;;;;;9.30;97723.00;;;;8366300;28;20220;-69
2022/03/18 01:10:02;;;;;;;63.50;31.77;;;;;9.30;97716.00;;;;8367200;28;20723;-71
2022/03/18 01:14:05;;;;;;;66.63;32.47;;;;;9.20;97721.00;;;;8367160;28;20212;-71
2022/03/18 01:18:10;;;;;;;69.80;33.15;;;;;9.20;97720.00;;;;8365703;28;20208;-71
2022/03/18 01:22:13;;;;;;;70.00;32.87;;;;;9.20;97724.00;;;;8366933;28;20220;-71
2022/03/18 01:26:49;;;;;;;76.70;34.53;;;;;9.10;97733.00;;;;8365778;28;20221;-71
2022/03/18 01:30:52;;;;;;;65.67;32.87;;;;;9.10;97730.00;;;;8365228;28;20219;-71
2022/03/18 01:34:56;;;;;;;68.80;32.40;;;;;9.10;97726.00;;;;8366659;28;20220;-71
2022/03/18 01:39:30;;;;;;;69.57;35.50;;;;;9.00;97731.00;;;;8365285;28;20227;-71
2022/03/18 01:43:38;;;;;;;70.20;32.80;;;;;9.00;97727.00;;;;8364786;28;20259;-71
2022/03/18 01:48:09;;;;;;;74.90;35.90;;;;;8.90;97734.00;;;;8365981;28;20221;-71
2022/03/18 01:52:13;;;;;;;70.37;31.97;;;;;8.90;97731.00;;;;8364412;28;20220;-71
2022/03/18 01:56:16;;;;;;;70.33;34.40;;;;;8.90;97729.00;;;;8365467;28;20573;-71
2022/03/18 02:00:21;;;;;;;71.07;33.97;;;;;8.80;97747.00;;;;8364997;28;20231;-71
2022/03/18 02:04:25;;;;;;;76.10;35.87;;;;;8.80;97740.00;;;;8364532;28;20239;-71
2022/03/18 02:08:29;;;;;;;76.90;38.87;;;;;8.80;97739.00;;;;8365270;28;20271;-70
2022/03/18 02:12:32;;;;;;;75.97;37.57;;;;;8.70;97744.00;;;;8363659;28;20554;-70
2022/03/18 02:21:37;;;;;;;80.80;36.07;;;;;8.60;97756.00;;;;8365423;28;20221;-71
2022/03/18 02:25:42;;;;;;;97.53;38.90;;;;;8.50;97749.00;;;;8364061;28;20212;-71
2022/03/18 02:30:15;;;;;;;77.73;34.63;;;;;8.40;97749.00;;;;8363812;28;20676;-70
2022/03/18 02:34:19;;;;;;;81.37;36.80;;;;;8.30;97746.00;;;;8364354;28;20217;-70
2022/03/18 02:38:55;;;;;;;82.63;37.87;;;;;8.20;97750.00;;;;8362442;28;20220;-71
2022/03/18 02:42:59;;;;;;;87.40;42.93;;;;;8.20;97754.00;;;;8362537;28;20244;-70
2022/03/18 02:47:33;;;;;;;82.47;39.17;;;;;8.10;97756.00;;;;8363748;28;20220;-71
2022/03/18 02:51:37;;;;;;;85.47;36.73;;;;;8.00;97755.00;;;;8363180;28;20225;-70
2022/03/18 02:55:40;;;;;;;74.23;31.90;;;;;8.00;97755.00;;;;8362846;28;20231;-70
2022/03/18 03:04:30;;;;;;;82.03;36.73;;;;;7.80;97751.00;;;;8367388;23;20297;-72
2022/03/18 03:08:31;;;;;;;82.27;35.70;;;;;7.80;97766.00;;;;8344375;28;21138;-72
2022/03/18 03:12:34;;;;;;;76.93;33.27;;;;;7.70;97777.00;;;;8345255;28;20232;-76
2022/03/18 03:16:37;;;;;;;95.43;41.67;;;;;7.80;97783.00;;;;8348706;28;20225;-71
2022/03/18 03:20:42;;;;;;;90.20;37.17;;;;;7.70;97782.00;;;;8347483;28;20228;-72
2022/03/18 03:24:45;;;;;;;87.50;36.20;;;;;7.60;97791.00;;;;8347358;28;20942;-71
2022/03/18 03:28:48;;;;;;;91.80;38.87;;;;;7.60;97804.00;;;;8349717;28;20224;-71
2022/03/18 03:32:52;;;;;;;100.67;40.30;;;;;7.60;97804.00;;;;8345573;28;20597;-72
2022/03/18 03:36:56;;;;;;;103.57;40.80;;;;;7.50;97806.00;;;;8346322;28;20220;-72
2022/03/18 03:40:59;;;;;;;79.57;33.43;;;;;7.50;97800.00;;;;8347926;28;20584;-73
2022/03/18 03:45:02;;;;;;;88.93;34.63;;;;;7.50;97798.00;;;;8347573;28;20871;-72
2022/03/18 03:49:05;;;;;;;77.07;31.70;;;;;7.40;97811.00;;;;8347651;28;20225;-71
2022/03/18 03:53:09;;;;;;;88.73;34.37;;;;;7.40;97815.00;;;;8339437;28;20233;-72
2022/03/18 03:57:12;;;;;;;72.80;30.63;;;;;7.40;97821.00;;;;8346514;28;20243;-71
2022/03/18 04:01:15;;;;;;;75.17;32.73;;;;;7.40;97820.00;;;;8345968;28;20236;-73
2022/03/18 04:05:18;;;;;;;83.20;36.33;;;;;7.40;97823.00;;;;8311858;28;20674;-70
2022/03/18 04:09:23;;;;;;;87.77;37.20;;;;;7.40;97826.00;;;;8310049;28;20243;-73
2022/03/18 04:13:26;;;;;;;64.90;27.40;;;;;7.30;97821.00;;;;8310351;28;20241;-73
2022/03/18 04:17:37;;;;;;;80.97;35.00;;;;;7.30;97836.00;;;;8311773;28;20239;-75
2022/03/18 04:21:41;;;;;;;84.33;34.23;;;;;7.30;97845.00;;;;8309192;28;20662;-72
2022/03/18 04:25:45;;;;;;;72.90;30.93;;;;;7.20;97860.00;;;;8313415;28;20229;-74
2022/03/18 04:29:48;;;;;;;70.97;28.93;;;;;7.20;97851.00;;;;8312651;28;20808;-75
2022/03/18 04:33:51;;;;;;;72.07;30.50;;;;;7.20;97855.00;;;;8313241;28;20233;-71
2022/03/18 04:37:54;;;;;;;83.23;33.60;;;;;7.10;97854.00;;;;8288299;28;20225;-71
2022/03/18 04:41:58;;;;;;;73.67;30.07;;;;;7.10;97864.00;;;;8312462;28;20237;-72
2022/03/18 04:46:01;;;;;;;78.97;33.43;;;;;7.10;97859.00;;;;8313484;28;20662;-73
2022/03/18 04:50:06;;;;;;;69.93;29.20;;;;;7.10;97866.00;;;;8307063;28;20228;-74
2022/03/18 04:54:09;;;;;;;74.60;31.83;;;;;7.10;97882.00;;;;8303889;28;20234;-73
2022/03/18 04:58:13;;;;;;;77.07;30.50;;;;;7.00;97885.00;;;;8313419;28;20219;-71
2022/03/18 05:02:17;;;;;;;73.90;29.73;;;;;7.00;97894.00;;;;8311307;28;20232;-71
2022/03/18 05:06:20;;;;;;;76.30;29.80;;;;;7.00;97887.00;;;;8313000;28;20914;-71
2022/03/18 05:10:24;;;;;;;88.97;36.27;;;;;7.00;97898.00;;;;8309077;28;20240;-73
2022/03/18 05:14:28;;;;;;;79.80;32.80;;;;;7.00;97895.00;;;;8309228;28;20236;-72
2022/03/18 05:18:31;;;;;;;77.97;30.03;;;;;7.00;97902.00;;;;8310192;28;20225;-73
2022/03/18 05:22:35;;;;;;;82.17;34.10;;;;;7.00;97899.00;;;;8311875;28;20240;-76
2022/03/18 05:26:38;;;;;;;89.20;39.57;;;;;7.00;97912.00;;;;8312837;28;20271;-71
2022/03/18 05:30:42;;;;;;;93.17;40.33;;;;;7.00;97911.00;;;;8309882;28;20234;-72
2022/03/18 05:34:49;;;;;;;83.83;33.87;;;;;7.00;97921.00;;;;8289494;28;20654;-73
2022/03/18 05:38:52;;;;;;;94.63;38.90;;;;;7.00;97927.00;;;;8311293;28;20232;-72
2022/03/18 05:42:55;;;;;;;95.33;38.20;;;;;7.00;97940.00;;;;8310013;28;20229;-74
2022/03/18 05:46:59;;;;;;;94.07;37.00;;;;;7.00;97948.00;;;;8309507;28;20221;-72
2022/03/18 05:51:02;;;;;;;76.67;31.47;;;;;7.10;97943.00;;;;8310757;28;20322;-72
2022/03/18 05:55:06;;;;;;;83.80;32.93;;;;;7.10;97960.00;;;;8311888;28;20670;-74
2022/03/18 05:59:10;;;;;;;87.70;35.70;;;;;7.20;97968.00;;;;8312724;28;20225;-72
2022/03/18 06:03:14;;;;;;;87.70;37.60;;;;;7.20;97970.00;;;;8314403;28;20381;-71
2022/03/18 06:07:18;;;;;;;108.97;43.17;;;;;7.30;97977.00;;;;8308287;28;21050;-72
2022/03/18 06:15:41;;;;;;;88.53;35.37;;;;;7.40;97986.00;;;;8315325;28;20229;-71
2022/03/18 06:19:54;;;;;;;90.97;38.80;;;;;7.40;97993.00;;;;8308726;28;20250;-71
2022/03/18 06:23:57;;;;;;;100.47;40.47;;;;;7.50;98002.00;;;;8314414;28;20250;-72
2022/03/18 06:28:00;;;;;;;97.70;40.23;;;;;7.50;98003.00;;;;8316798;28;20232;-72
2022/03/18 06:32:05;;;;;;;94.83;37.77;;;;;7.60;98008.00;;;;8310228;28;20287;-73
2022/03/18 06:36:10;;;;;;;103.83;43.73;;;;;7.70;98010.00;;;;8312635;28;20279;-76
2022/03/18 06:40:13;;;;;;;101.07;41.57;;;;;7.80;98022.00;;;;8311575;28;20225;-72
2022/03/18 06:44:16;;;;;;;91.63;38.37;;;;;7.80;98016.00;;;;8310846;28;20236;-72
2022/03/18 06:48:19;;;;;;;100.53;40.53;;;;;7.90;98025.00;;;;8315095;28;20240;-73
2022/03/18 06:52:24;;;;;;;98.20;39.37;;;;;8.00;98032.00;;;;8313538;28;21032;-71
2022/03/18 06:56:30;;;;;;;98.83;40.70;;;;;8.10;98037.00;;;;8310596;28;20232;-73
2022/03/18 07:00:32;;;;;;;102.17;43.00;;;;;8.20;98043.00;;;;8315975;28;20249;-71
2022/03/18 07:04:36;;;;;;;98.03;38.93;;;;;8.30;98038.00;;;;8311481;28;20649;-73
2022/03/18 07:08:40;;;;;;;105.50;39.13;;;;;8.30;98046.00;;;;8314949;28;20232;-72
2022/03/18 07:12:43;;;;;;;89.73;35.00;;;;;8.40;98058.00;;;;8314315;28;20225;-72
2022/03/18 07:21:07;;;;;;;102.47;39.57;;;;;8.50;98066.00;;;;8315506;28;20795;-73
2022/03/18 07:25:11;;;;;;;97.80;40.33;;;;;8.60;98065.00;;;;8306465;28;20240;-74
2022/03/18 07:29:14;;;;;;;92.53;38.37;;;;;8.70;98062.00;;;;8312920;28;20225;-73
2022/03/18 07:33:20;;;;;;;103.97;42.80;;;;;8.70;98069.00;;;;8311591;28;20236;-74
2022/03/18 07:37:28;;;;;;;103.73;41.90;;;;;8.80;98082.00;;;;8302747;28;20229;-72
2022/03/18 07:41:34;;;;;;;97.73;36.17;;;;;8.80;98089.00;;;;8304038;28;20304;-74
2022/03/18 07:45:38;;;;;;;100.40;43.10;;;;;8.90;98083.00;;;;8303720;28;20229;-72
2022/03/18 07:49:41;;;;;;;102.10;42.00;;;;;8.90;98094.00;;;;8308922;28;20245;-73
2022/03/18 07:53:44;;;;;;;97.23;39.80;;;;;9.00;98093.00;;;;8310465;28;20278;-72
2022/03/18 07:57:49;;;;;;;95.10;37.57;;;;;9.10;98096.00;;;;8311208;28;20228;-75
2022/03/18 08:01:52;;;;;;;115.67;48.37;;;;;9.20;98108.00;;;;8312005;28;20673;-74
2022/03/18 08:05:55;;;;;;;106.30;43.43;;;;;9.30;98109.00;;;;8313573;28;20221;-73
2022/03/18 08:09:58;;;;;;;104.63;43.50;;;;;9.30;98112.00;;;;8310684;28;20225;-73
2022/03/18 08:14:02;;;;;;;110.70;43.35;;;;;9.50;98118.00;;;;8308377;28;20225;-72
2022/03/18 08:18:05;;;;;;;100.23;42.23;;;;;9.60;98128.00;;;;8309424;28;20268;-72
2022/03/18 08:22:08;;;;;;;90.27;39.00;;;;;9.60;98138.00;;;;8311818;28;20658;-74
2022/03/18 08:26:11;;;;;;;112.83;41.50;;;;;9.60;98132.00;;;;8308075;28;20282;-72
2022/03/18 08:30:15;;;;;;;107.37;44.27;;;;;9.70;98135.00;;;;8303952;28;20224;-75
2022/03/18 08:34:25;;;;;;;88.63;38.37;;;;;9.80;98142.00;;;;8309146;28;20243;-74
2022/03/18 08:38:32;;;;;;;103.93;44.70;;;;;9.90;98154.00;;;;8298188;28;20234;-74
2022/03/18 08:42:35;;;;;;;105.10;42.97;;;;;9.90;98163.00;;;;8307806;28;20300;-77
2022/03/18 08:46:39;;;;;;;104.15;45.85;;;;;10.10;98153.00;;;;8310507;28;20233;-74
2022/03/18 08:50:42;;;;;;;105.00;45.03;;;;;10.40;98177.00;;;;8312105;28;20222;-74
2022/03/18 08:54:45;;;;;;;93.53;40.60;;;;;10.60;98173.00;;;;8309443;28;20579;-72
2022/03/18 08:58:49;;;;;;;90.10;43.57;;;;;10.70;98171.00;;;;8314116;28;20229;-73
2022/03/18 09:02:53;;;;;;;101.22;43.85;;;;;11.10;98170.00;;;;8312601;28;20225;-72
2022/03/18 09:06:57;;;;;;;90.40;40.42;;;;;11.40;98167.00;;;;8306674;28;20231;-71
2022/03/18 09:11:00;;;;;;;86.60;38.45;;;;;11.60;98169.00;;;;8310132;28;20247;-72
2022/03/18 09:15:03;;;;;;;79.57;36.67;;;;;11.90;98171.00;;;;8310539;28;20233;-71
2022/03/18 09:19:09;;;;;;;79.05;34.95;;;;;12.00;98175.00;;;;8306097;28;20222;-71
2022/03/18 09:23:16;;;;;;;81.80;38.05;;;;;11.90;98181.00;;;;8304591;28;20252;-70
2022/03/18 09:27:22;;;;;;;75.13;36.72;;;;;12.00;98182.00;;;;8314368;28;20233;-72
2022/03/18 09:31:25;;;;;;;81.10;38.50;;;;;12.10;98189.00;;;;8310056;28;20758;-72
2022/03/18 09:35:30;;;;;;;74.50;34.97;;;;;12.40;98207.00;;;;8315661;28;20302;-72
2022/03/18 09:39:33;;;;;;;74.97;31.77;;;;;12.50;98188.00;;;;8317663;28;20232;-71
2022/03/18 09:43:41;;;;;;;76.50;35.67;;;;;12.60;98197.00;;;;8311278;28;20238;-71
2022/03/18 09:47:44;;;;;;;78.13;34.65;;;;;12.60;98198.00;;;;8316324;28;20226;-75
2022/03/18 09:51:49;;;;;;;69.25;32.33;;;;;12.40;98202.00;;;;8317027;28;20823;-74
2022/03/18 09:55:53;;;;;;;76.88;36.90;;;;;12.30;98199.00;;;;8307649;28;20666;-74
2022/03/18 09:59:56;;;;;;;66.00;31.27;;;;;12.40;98209.00;;;;8313818;28;20238;-72
2022/03/18 10:04:03;;;;;;;65.35;29.42;;;;;12.40;98215.00;;;;8308640;28;20698;-72
2022/03/18 10:08:08;;;;;;;77.30;36.13;;;;;12.40;98217.00;;;;8316055;28;20597;-73
2022/03/18 10:12:28;;;;;;;69.22;31.77;;;;;12.50;98217.00;;;;8311512;28;20229;-73
2022/03/18 10:16:36;;;;;;;65.70;32.42;;;;;12.70;98209.00;;;;8310266;28;20231;-74
2022/03/18 10:20:40;;;;;;;71.65;29.90;;;;;13.00;98212.00;;;;8312777;28;20216;-74
2022/03/18 10:24:45;;;;;;;55.45;27.80;;;;;13.20;98221.00;;;;8313035;28;20226;-74
2022/03/18 10:28:48;;;;;;;75.50;34.45;;;;;13.20;98219.00;;;;8310599;28;20232;-74
2022/03/18 10:32:52;;;;;;;61.80;29.58;;;;;13.30;98220.00;;;;8312952;28;20220;-75
2022/03/18 10:37:05;;;;;;;64.30;31.98;;;;;13.30;98221.00;;;;8308344;28;20266;-74
2022/03/18 10:41:24;;;;;;;63.05;32.67;;;;;13.40;98234.00;;;;8316070;28;20285;-79
2022/03/18 10:45:27;;;;;;;67.10;33.10;;;;;13.20;98244.00;;;;8313525;28;20247;-74
2022/03/18 10:49:30;;;;;;;60.67;30.52;;;;;13.50;98237.00;;;;8312351;28;20730;-75
2022/03/18 10:53:35;;;;;;;56.75;30.17;;;;;13.50;98243.00;;;;8308173;28;20241;-76
2022/03/18 10:57:39;;;;;;;69.00;32.60;;;;;13.60;98248.00;;;;8315243;28;20304;-75
2022/03/18 11:01:42;;;;;;;64.20;30.85;;;;;13.60;98245.00;;;;8308098;28;20224;-75
2022/03/18 11:05:47;;;;;;;63.67;30.17;;;;;13.60;98256.00;;;;8312526;28;20245;-75
2022/03/18 11:14:20;;;;;;;58.03;28.95;;;;;13.90;98250.00;;;;8313449;28;20224;-75
2022/03/18 11:18:29;;;;;;;62.75;31.08;;;;;13.90;98257.00;;;;8312343;28;20236;-75
2022/03/18 11:22:36;;;;;;;56.60;26.80;;;;;13.70;98262.00;;;;8312268;28;20232;-75
2022/03/18 11:26:46;;;;;;;47.22;24.42;;;;;13.70;98243.00;;;;8311082;28;20251;-74
2022/03/18 11:31:02;;;;;;;50.13;23.20;;;;;13.60;98254.00;;;;8311210;28;20294;-75
2022/03/18 11:35:06;;;;;;;54.58;27.98;;;;;13.80;98259.00;;;;8311937;28;20240;-72
2022/03/18 11:39:09;;;;;;;54.67;27.27;;;;;13.90;98261.00;;;;8311753;28;20233;-75
2022/03/18 11:43:32;;;;;;;58.80;28.88;;;;;13.90;98255.00;;;;8312896;28;20305;-76
2022/03/18 11:47:50;;;;;;;54.40;27.13;;;;;14.00;98261.00;;;;8309837;28;20228;-75
2022/03/18 11:52:08;;;;;;;55.53;27.90;;;;;14.00;98262.00;;;;8311582;28;20238;-78
2022/03/18 11:56:13;;;;;;;56.40;29.58;;;;;13.90;98256.00;;;;8315026;28;20228;-75
2022/03/18 12:00:42;;;;;;;53.75;26.15;;;;;13.90;98263.00;;;;8307331;28;20233;-75
2022/03/18 12:04:50;;;;;;;56.55;29.50;;;;;14.00;98265.00;;;;8309593;28;20354;-75
2022/03/18 12:09:02;;;;;;;52.95;26.73;;;;;13.90;98258.00;;;;8316359;28;20232;-77
2022/03/18 12:13:06;;;;;;;59.63;28.08;;;;;13.80;98261.00;;;;8313727;28;20635;-77
2022/03/18 12:17:09;;;;;;;50.45;25.67;;;;;13.90;98258.00;;;;8314499;28;20232;-75
2022/03/18 12:21:34;;;;;;;54.22;27.20;;;;;14.00;98261.00;;;;8314512;28;21653;-76
2022/03/18 12:25:38;;;;;;;54.45;26.77;;;;;14.10;98263.00;;;;8315759;28;20240;-77
2022/03/18 12:29:41;;;;;;;54.75;27.42;;;;;13.90;98257.00;;;;8292270;28;20231;-75
2022/03/18 12:33:44;;;;;;;52.17;25.90;;;;;13.80;98268.00;;;;8306719;28;20247;-76
2022/03/18 12:37:48;;;;;;;48.38;24.95;;;;;13.70;98249.00;;;;8315416;28;20287;-74
2022/03/18 12:41:52;;;;;;;52.88;28.45;;;;;13.70;98245.00;;;;8316319;28;20666;-74
2022/03/18 12:45:55;;;;;;;56.50;28.45;;;;;13.80;98255.00;;;;8314554;28;20240;-76
2022/03/18 12:50:00;;;;;;;51.70;26.40;;;;;13.80;98239.00;;;;8315370;28;20240;-78
2022/03/18 12:54:04;;;;;;;52.33;27.75;;;;;13.70;98239.00;;;;8315285;28;20690;-75
2022/03/18 12:58:07;;;;;;;45.45;21.20;;;;;13.70;98243.00;;;;8318611;28;20231;-76
2022/03/18 13:02:12;;;;;;;45.38;23.55;;;;;13.70;98243.00;;;;8321968;28;20244;-76
2022/03/18 13:06:19;;;;;;;58.88;27.15;;;;;13.80;98244.00;;;;8322235;28;20302;-74
2022/03/18 13:10:23;;;;;;;47.10;24.73;;;;;13.90;98252.00;;;;8321887;28;20221;-74
2022/03/18 13:14:34;;;;;;;45.55;23.35;;;;;13.80;98248.00;;;;8321426;28;20243;-76
2022/03/18 13:18:38;;;;;;;54.45;26.70;;;;;13.70;98249.00;;;;8317668;28;20765;-76
2022/03/18 13:22:41;;;;;;;57.75;28.98;;;;;13.70;98242.00;;;;8305074;28;20224;-77
2022/03/18 13:26:46;;;;;;;55.72;26.60;;;;;13.80;98259.00;;;;8320741;28;20779;-76
2022/03/18 13:35:11;;;;;;;56.47;28.50;;;;;13.50;98253.00;;;;8311883;28;20229;-75
2022/03/18 13:39:23;;;;;;;61.00;30.85;;;;;13.50;98242.00;;;;8315594;28;20229;-76
2022/03/18 13:43:29;;;;;;;59.05;28.52;;;;;13.50;98249.00;;;;8312284;28;20229;-74
2022/03/18 13:47:45;;;;;;;63.47;31.17;;;;;13.50;98248.00;;;;8317148;28;20238;-79
2022/03/18 13:51:49;;;;;;;58.53;30.80;;;;;13.70;98258.00;;;;8300015;28;20233;-77
2022/03/18 13:55:53;;;;;;;58.08;28.60;;;;;13.70;98251.00;;;;8309619;28;20232;-75
2022/03/18 14:00:00;;;;;;;58.13;29.13;;;;;13.70;98244.00;;;;8307854;28;20217;-75
2022/03/18 14:04:03;;;;;;;66.07;32.83;;;;;13.70;98261.00;;;;8308340;28;20239;-76
2022/03/18 14:08:07;;;;;;;61.65;31.33;;;;;13.70;98242.00;;;;8307574;28;20238;-74
2022/03/18 14:17:14;;;;;;;55.47;29.88;;;;;13.50;98245.00;;;;8306248;28;20454;-75
2022/03/18 14:21:17;;;;;;;53.70;25.00;;;;;13.50;98242.00;;;;8300867;28;20225;-75
2022/03/18 14:25:20;;;;;;;60.72;31.27;;;;;13.50;98239.00;;;;8313260;28;20241;-75
2022/03/18 14:29:31;;;;;;;62.85;32.15;;;;;13.50;98241.00;;;;8303482;28;20245;-77
2022/03/18 14:33:37;;;;;;;57.28;28.67;;;;;13.60;98235.00;;;;8303096;28;20617;-76
2022/03/18 14:37:40;;;;;;;60.85;29.35;;;;;13.60;98241.00;;;;8309360;28;20232;-75
2022/03/18 14:41:43;;;;;;;64.80;27.95;;;;;13.60;98229.00;;;;8311434;28;20248;-76
2022/03/18 14:45:46;;;;;;;59.95;29.05;;;;;13.60;98235.00;;;;8310165;28;20630;-76
2022/03/18 14:49:51;;;;;;;60.83;30.42;;;;;13.60;98240.00;;;;8306646;28;20320;-73
2022/03/18 14:53:54;;;;;;;64.88;32.20;;;;;13.60;98234.00;;;;8312298;28;20232;-75
2022/03/18 14:57:58;;;;;;;60.97;27.20;;;;;13.60;98242.00;;;;8307411;28;20642;-77
2022/03/18 15:02:01;;;;;;;60.08;31.52;;;;;13.70;98241.00;;;;8313278;28;20240;-75
2022/03/18 15:06:05;;;;;;;54.90;30.77;;;;;13.70;98243.00;;;;8311856;28;20303;-75
2022/03/18 15:10:10;;;;;;;59.17;31.13;;;;;13.60;98246.00;;;;8300949;28;20243;-75
2022/03/18 15:14:13;;;;;;;61.78;31.88;;;;;13.40;98249.00;;;;8310206;28;20239;-76
2022/03/18 15:18:18;;;;;;;63.65;31.92;;;;;13.30;98249.00;;;;8299141;28;20304;-74
2022/03/18 15:22:22;;;;;;;64.13;30.45;;;;;13.20;98250.00;;;;8297764;28;20686;-75
2022/03/18 15:26:25;;;;;;;56.00;27.80;;;;;13.10;98242.00;;;;8310090;28;20233;-75
2022/03/18 15:30:28;;;;;;;61.13;30.00;;;;;13.10;98253.00;;;;8307359;28;20239;-75
2022/03/18 15:34:33;;;;;;;58.25;27.77;;;;;13.00;98254.00;;;;8310515;28;20296;-76
2022/03/18 15:38:38;;;;;;;61.13;30.15;;;;;13.00;98252.00;;;;8314442;28;20223;-74
2022/03/18 15:42:41;;;;;;;56.92;27.23;;;;;13.00;98253.00;;;;8306229;28;20597;-76
2022/03/18 15:46:44;;;;;;;65.75;32.53;;;;;12.90;98249.00;;;;8304962;28;20895;-75
2022/03/18 15:50:47;;;;;;;63.40;31.58;;;;;13.00;98248.00;;;;8297083;28;20310;-76
2022/03/18 15:54:52;;;;;;;61.47;30.85;;;;;12.90;98254.00;;;;8313319;28;20223;-77
2022/03/18 15:58:56;;;;;;;60.72;31.58;;;;;12.80;98250.00;;;;8306786;28;20715;-77
2022/03/18 16:02:59;;;;;;;57.28;29.58;;;;;12.80;98252.00;;;;8313235;28;20231;-77
2022/03/18 16:07:03;;;;;;;62.72;31.02;;;;;12.70;98255.00;;;;8307615;28;20240;-76
2022/03/18 16:11:08;;;;;;;65.80;32.35;;;;;12.60;98258.00;;;;8299640;28;20594;-75
2022/03/18 16:15:12;;;;;;;66.95;32.85;;;;;12.50;98261.00;;;;8308467;28;20242;-77
2022/03/18 16:19:16;;;;;;;66.15;30.50;;;;;12.40;98266.00;;;;8300736;28;20238;-78
2022/03/18 16:23:19;;;;;;;71.78;34.08;;;;;12.30;98270.00;;;;8306185;28;20261;-75
2022/03/18 16:27:24;;;;;;;67.93;32.35;;;;;12.20;98271.00;;;;8303690;28;20235;-75
2022/03/18 16:31:27;;;;;;;63.58;32.63;;;;;12.20;98283.00;;;;8308619;28;20246;-76
2022/03/18 16:35:31;;;;;;;67.60;33.78;;;;;12.10;98275.00;;;;8308834;28;20291;-77
2022/03/18 16:39:34;;;;;;;60.47;30.95;;;;;12.00;98291.00;;;;8310225;28;20278;-77
2022/03/18 16:43:38;;;;;;;70.22;33.20;;;;;11.90;98302.00;;;;8309996;28;20227;-77
2022/03/18 16:52:07;;;;;;;70.55;32.00;;;;;11.60;98309.00;;;;8302261;28;20227;-76
2022/03/18 16:56:10;;;;;;;69.43;35.42;;;;;11.50;98316.00;;;;8305045;28;20237;-78
2022/03/18 17:00:20;;;;;;;72.03;33.38;;;;;11.30;98319.00;;;;8304578;28;20236;-76
2022/03/18 17:04:25;;;;;;;66.18;32.72;;;;;11.20;98329.00;;;;8307693;28;20261;-77
2022/03/18 17:08:28;;;;;;;76.07;35.22;;;;;11.10;98340.00;;;;8300002;28;20229;-72
2022/03/18 17:12:31;;;;;;;69.57;31.73;;;;;10.90;98342.00;;;;8299307;28;20229;-77
2022/03/18 17:16:36;;;;;;;68.20;31.23;;;;;10.80;98350.00;;;;8306741;28;20222;-75
2022/03/18 17:20:39;;;;;;;81.45;37.03;;;;;10.70;98354.00;;;;8306120;28;20225;-79
2022/03/18 17:24:43;;;;;;;74.90;33.85;;;;;10.50;98355.00;;;;8307342;28;20613;-75
2022/03/18 17:28:46;;;;;;;81.82;37.42;;;;;10.40;98358.00;;;;8309914;28;20382;-75
2022/03/18 17:32:50;;;;;;;81.95;36.13;;;;;10.30;98367.00;;;;8310034;28;20292;-73
2022/03/18 17:36:53;;;;;;;73.70;33.60;;;;;10.20;98377.00;;;;8309598;28;20233;-75
2022/03/18 17:40:56;;;;;;;81.93;37.00;;;;;10.10;98393.00;;;;8311042;28;20598;-72
2022/03/18 17:45:00;;;;;;;85.03;39.33;;;;;10.00;98389.00;;;;8313379;28;20228;-76
2022/03/18 17:49:08;;;;;;;83.17;37.50;;;;;9.90;98404.00;;;;8316625;28;20228;-72
2022/03/18 17:53:11;;;;;;;76.20;33.60;;;;;9.90;98398.00;;;;8313730;28;20226;-75
2022/03/18 17:57:20;;;;;;;86.80;38.08;;;;;9.80;98395.00;;;;8315346;28;20900;-72
2022/03/18 18:01:24;;;;;;;75.97;35.33;;;;;9.70;98406.00;;;;8315251;28;20229;-75
2022/03/18 18:05:28;;;;;;;90.00;39.42;;;;;9.70;98407.00;;;;8311925;28;20667;-73
2022/03/18 18:09:31;;;;;;;74.33;32.97;;;;;9.50;98404.00;;;;8314813;28;20226;-73
2022/03/18 18:13:35;;;;;;;79.87;34.00;;;;;9.50;98414.00;;;;8312039;28;20242;-76
2022/03/18 18:17:39;;;;;;;93.53;39.53;;;;;9.40;98407.00;;;;8314516;28;20225;-74
2022/03/18 18:21:58;;;;;;;88.07;40.70;;;;;9.40;98416.00;;;;8315783;28;20787;-76
2022/03/18 18:26:03;;;;;;;93.67;42.17;;;;;9.30;98421.00;;;;8312569;28;20229;-70
2022/03/18 18:30:07;;;;;;;97.47;41.67;;;;;9.30;98430.00;;;;8312916;28;20225;-74
2022/03/18 18:34:10;;;;;;;92.47;40.37;;;;;9.20;98441.00;;;;8316152;28;20237;-79
2022/03/18 18:38:15;;;;;;;97.20;40.57;;;;;9.10;98443.00;;;;8309238;28;20229;-75
2022/03/18 18:42:19;;;;;;;96.60;40.93;;;;;9.10;98443.00;;;;8314733;28;20225;-72
2022/03/18 18:46:22;;;;;;;95.03;41.03;;;;;9.10;98444.00;;;;8315587;28;20251;-73
2022/03/18 18:50:46;;;;;;;99.20;42.17;;;;;9.00;98450.00;;;;8315065;28;20251;-70
2022/03/18 18:55:00;;;;;;;94.13;41.13;;;;;9.00;98451.00;;;;8253963;28;20701;-73
2022/03/18 18:59:04;;;;;;;99.40;42.77;;;;;9.00;98461.00;;;;8316958;28;20236;-69
2022/03/18 19:03:06;;;;;;;100.83;43.47;;;;;9.00;98463.00;;;;8316518;28;20240;-74
2022/03/18 19:07:10;;;;;;;99.93;42.70;;;;;8.90;98455.00;;;;8315200;28;20783;-70
2022/03/18 19:11:14;;;;;;;112.18;48.00;;;;;8.90;98460.00;;;;8313545;28;20773;-75
2022/03/18 19:15:18;;;;;;;111.65;44.53;;;;;8.90;98465.00;;;;8317599;28;20229;-73
2022/03/18 19:19:21;;;;;;;109.27;44.90;;;;;9.00;98466.00;;;;8317304;28;20248;-77
2022/03/18 19:23:24;;;;;;;112.07;45.63;;;;;9.10;98477.00;;;;8318661;28;20233;-70
2022/03/18 19:27:28;;;;;;;115.07;47.78;;;;;9.10;98472.00;;;;8318311;28;20241;-71
2022/03/18 19:35:52;;;;;;;114.57;45.07;;;;;8.90;98483.00;;;;8300527;28;20237;-73
2022/03/18 19:39:55;;;;;;;109.50;46.97;;;;;8.90;98487.00;;;;8306785;28;20237;-73
2022/03/18 19:43:59;;;;;;;105.97;43.43;;;;;8.70;98481.00;;;;8316832;28;20233;-75
2022/03/18 19:48:02;;;;;;;111.73;47.77;;;;;8.70;98484.00;;;;8313528;28;20245;-71
2022/03/18 19:52:06;;;;;;;113.20;43.63;;;;;8.60;98495.00;;;;8312147;28;20323;-73
2022/03/18 20:04:53;;;;;;;93.47;38.73;;;;;8.30;98502.00;;;;8301347;28;20289;-73
2022/03/18 20:08:58;;;;;;;86.30;37.17;;;;;8.20;98498.00;;;;8305049;28;20237;-69
2022/03/18 20:13:01;;;;;;;94.97;40.20;;;;;8.10;98497.00;;;;8315844;28;20225;-74
2022/03/18 20:17:08;;;;;;;87.60;37.27;;;;;8.10;98504.00;;;;8307968;28;20601;-72
2022/03/18 20:21:11;;;;;;;91.40;41.00;;;;;8.00;98501.00;;;;8301397;28;20939;-72
2022/03/18 20:25:16;;;;;;;88.23;38.23;;;;;7.90;98501.00;;;;8304276;28;20228;-71
2022/03/18 20:29:19;;;;;;;87.73;38.20;;;;;7.80;98506.00;;;;8306998;28;20291;-71
2022/03/18 20:33:23;;;;;;;84.40;40.13;;;;;7.70;98513.00;;;;8301119;28;20251;-75
2022/03/18 20:37:27;;;;;;;88.13;38.37;;;;;7.70;98504.00;;;;8302118;28;21027;-72
2022/03/18 20:41:30;;;;;;;86.77;37.73;;;;;7.60;98497.00;;;;8303152;28;20232;-74
2022/03/18 20:45:34;;;;;;;88.60;43.37;;;;;7.60;98503.00;;;;8302704;28;20229;-71
2022/03/18 20:49:39;;;;;;;90.57;36.97;;;;;7.50;98504.00;;;;8304129;28;20233;-79
2022/03/18 20:53:42;;;;;;;85.33;37.87;;;;;7.60;98506.00;;;;8308993;28;20229;-76
2022/03/18 20:57:45;;;;;;;81.77;34.67;;;;;7.50;98522.00;;;;8310586;28;20225;-73
2022/03/18 21:01:48;;;;;;;86.73;38.70;;;;;7.50;98505.00;;;;8297622;28;20275;-74